createdAt,value
2022-11-07T00:01:23.545Z,2.10
2022-11-07T00:03:54.318Z,2.07
2022-11-07T00:06:21.257Z,3.00
2022-11-07T00:08:47.900Z,2.30
2022-11-07T00:11:14.482Z,2.73
2022-11-07T00:13:41.468Z,2.00
2022-11-07T00:16:09.957Z,1.87
2022-11-07T00:18:36.741Z,2.20
2022-11-07T00:21:05.167Z,2.30
2022-11-07T00:23:32.130Z,2.10
2022-11-07T00:26:03.348Z,1.97
2022-11-07T00:28:33.807Z,2.00
2022-11-07T00:31:00.440Z,2.27
2022-11-07T00:33:27.113Z,2.63
2022-11-07T00:35:53.648Z,2.03
2022-11-07T00:38:20.863Z,2.00
2022-11-07T00:41:03.898Z,1.97
2022-11-07T00:43:31.098Z,2.07
2022-11-07T00:46:00.339Z,1.67
2022-11-07T00:48:26.897Z,1.67
2022-11-07T00:50:53.512Z,1.73
2022-11-07T00:53:20.369Z,1.87
2022-11-07T00:55:47.623Z,2.03
2022-11-07T00:58:15.995Z,1.60
2022-11-07T01:00:42.816Z,1.87
2022-11-07T01:03:28.503Z,1.97
2022-11-07T01:05:59.833Z,2.10
2022-11-07T01:08:27.015Z,1.53
2022-11-07T01:10:54.523Z,2.00
2022-11-07T01:13:22.259Z,2.53
2022-11-07T01:15:48.867Z,2.07
2022-11-07T01:18:15.594Z,1.90
2022-11-07T01:20:42.277Z,2.33
2022-11-07T01:23:09.266Z,2.23
2022-11-07T01:25:40.220Z,1.70
2022-11-07T01:28:07.930Z,1.83
2022-11-07T01:30:38.882Z,2.70
2022-11-07T01:33:05.773Z,1.80
2022-11-07T01:35:33.629Z,1.90
2022-11-07T01:38:00.204Z,2.07
2022-11-07T01:40:27.494Z,1.90
2022-11-07T01:42:54.827Z,2.33
2022-11-07T01:45:33.624Z,2.33
2022-11-07T01:48:02.515Z,1.80
2022-11-07T01:50:30.656Z,1.93
2022-11-07T01:52:57.808Z,1.50
2022-11-07T01:55:32.206Z,1.67
2022-11-07T01:58:02.310Z,2.27
2022-11-07T02:00:31.026Z,1.60
2022-11-07T02:03:11.597Z,2.67
2022-11-07T02:05:43.971Z,0.97
2022-11-07T02:08:12.755Z,1.70
2022-11-07T02:10:41.187Z,1.60
2022-11-07T02:13:08.420Z,1.03
2022-11-07T02:15:36.575Z,1.80
2022-11-07T02:18:03.823Z,1.80
2022-11-07T02:20:30.488Z,1.70
2022-11-07T02:23:05.687Z,1.50
2022-11-07T02:25:32.478Z,1.50
2022-11-07T02:28:04.162Z,1.23
2022-11-07T02:30:34.756Z,1.50
2022-11-07T02:33:02.727Z,1.53
2022-11-07T02:35:47.433Z,1.80
2022-11-07T02:38:17.406Z,1.27
2022-11-07T02:40:47.822Z,1.40
2022-11-07T02:43:16.436Z,1.20
2022-11-07T02:45:45.209Z,1.37
2022-11-07T02:48:11.729Z,1.70
2022-11-07T02:50:40.149Z,1.60
2022-11-07T02:53:06.865Z,0.93
2022-11-07T02:55:33.568Z,1.87
2022-11-07T02:58:00.321Z,1.23
2022-11-07T03:00:26.989Z,2.17
2022-11-07T03:02:53.731Z,1.30
2022-11-07T03:05:20.788Z,1.03
2022-11-07T03:07:49.460Z,1.50
2022-11-07T03:10:17.615Z,1.00
2022-11-07T03:12:44.580Z,1.23
2022-11-07T03:15:11.967Z,1.60
2022-11-07T03:17:38.651Z,1.40
2022-11-07T03:20:06.004Z,1.10
2022-11-07T03:22:32.670Z,1.80
2022-11-07T03:24:59.280Z,1.17
2022-11-07T03:27:25.935Z,1.37
2022-11-07T03:29:52.618Z,1.37
2022-11-07T03:32:19.277Z,1.27
2022-11-07T03:34:45.886Z,1.20
2022-11-07T03:37:12.431Z,1.13
2022-11-07T03:39:38.998Z,1.97
2022-11-07T03:42:05.741Z,1.30
2022-11-07T03:44:32.345Z,1.10
2022-11-07T03:46:58.968Z,1.20
2022-11-07T03:49:25.582Z,1.17
2022-11-07T03:51:52.171Z,1.47
2022-11-07T03:54:18.709Z,1.80
2022-11-07T03:56:45.178Z,0.60
2022-11-07T03:59:11.790Z,0.70
2022-11-07T04:01:38.454Z,1.10
2022-11-07T04:04:05.243Z,0.70
2022-11-07T04:06:32.239Z,0.80
2022-11-07T04:08:58.864Z,0.70
2022-11-07T04:11:43.828Z,0.50
2022-11-07T04:14:28.895Z,0.80
2022-11-07T04:17:13.861Z,0.77
2022-11-07T04:19:40.467Z,0.60
2022-11-07T04:22:07.026Z,0.53
2022-11-07T04:24:33.615Z,0.53
2022-11-07T04:27:18.711Z,0.70
2022-11-07T04:29:45.377Z,0.73
2022-11-07T04:32:11.897Z,1.17
2022-11-07T04:34:38.582Z,1.10
2022-11-07T04:37:05.252Z,0.60
2022-11-07T04:39:31.806Z,0.60
2022-11-07T04:41:58.494Z,0.80
2022-11-07T04:44:25.086Z,1.27
2022-11-07T04:46:51.648Z,0.67
2022-11-07T04:49:18.647Z,0.80
2022-11-07T04:51:45.327Z,0.50
2022-11-07T04:54:15.372Z,0.60
2022-11-07T04:56:42.408Z,0.37
2022-11-07T04:59:09.077Z,0.63
2022-11-07T05:01:35.767Z,0.97
2022-11-07T05:04:02.671Z,1.50
2022-11-07T05:06:29.684Z,0.57
2022-11-07T05:08:56.319Z,0.90
2022-11-07T05:11:22.906Z,0.50
2022-11-07T05:13:49.487Z,0.80
2022-11-07T05:16:19.735Z,0.57
2022-11-07T05:18:46.514Z,0.60
2022-11-07T05:21:13.037Z,0.57
2022-11-07T05:23:39.654Z,0.50
2022-11-07T05:26:06.315Z,0.80
2022-11-07T05:28:38.679Z,0.40
2022-11-07T05:31:07.193Z,0.60
2022-11-07T05:33:34.124Z,0.47
2022-11-07T05:36:18.856Z,0.50
2022-11-07T05:38:49.318Z,0.53
2022-11-07T05:41:17.541Z,0.60
2022-11-07T05:43:44.744Z,0.70
2022-11-07T05:46:11.688Z,0.60
2022-11-07T05:48:38.880Z,0.60
2022-11-07T05:51:07.263Z,0.50
2022-11-07T05:53:34.298Z,0.77
2022-11-07T05:56:01.296Z,0.87
2022-11-07T05:58:27.866Z,0.70
2022-11-07T06:00:54.397Z,0.60
2022-11-07T06:03:21.399Z,0.40
2022-11-07T06:05:48.198Z,0.63
2022-11-07T06:08:15.209Z,0.40
2022-11-07T06:10:42.976Z,0.73
2022-11-07T06:13:15.191Z,0.83
2022-11-07T06:15:44.203Z,0.77
2022-11-07T06:18:17.466Z,0.60
2022-11-07T06:20:44.535Z,0.70
2022-11-07T06:23:11.979Z,0.60
2022-11-07T06:25:39.050Z,0.80
2022-11-07T06:28:08.577Z,0.60
2022-11-07T06:30:36.188Z,0.70
2022-11-07T06:33:05.237Z,0.60
2022-11-07T06:35:32.327Z,0.70
2022-11-07T06:38:03.627Z,1.00
2022-11-07T06:40:30.480Z,0.70
2022-11-07T06:43:08.582Z,0.87
2022-11-07T06:45:35.209Z,0.80
2022-11-07T06:48:01.972Z,0.83
2022-11-07T06:50:28.681Z,1.13
2022-11-07T06:52:55.241Z,1.37
2022-11-07T06:55:22.289Z,1.33
2022-11-07T06:57:48.917Z,1.17
2022-11-07T07:00:16.291Z,1.10
2022-11-07T07:02:57.851Z,1.53
2022-11-07T07:05:25.626Z,1.00
2022-11-07T07:07:52.205Z,0.70
2022-11-07T07:10:18.986Z,1.00
2022-11-07T07:12:45.527Z,1.47
2022-11-07T07:15:12.042Z,0.70
2022-11-07T07:17:38.614Z,0.70
2022-11-07T07:20:05.874Z,0.80
2022-11-07T07:22:32.420Z,0.77
2022-11-07T07:24:59.046Z,0.87
2022-11-07T07:27:25.609Z,0.90
2022-11-07T07:29:53.742Z,0.67
2022-11-07T07:32:21.311Z,0.77
2022-11-07T07:34:48.281Z,1.03
2022-11-07T07:37:14.889Z,0.97
2022-11-07T07:39:41.554Z,0.60
2022-11-07T07:42:09.118Z,0.97
2022-11-07T07:44:36.225Z,0.80
2022-11-07T07:47:05.967Z,0.67
2022-11-07T07:49:36.669Z,0.80
2022-11-07T07:52:03.427Z,1.43
2022-11-07T07:54:29.999Z,1.00
2022-11-07T07:56:56.588Z,0.73
2022-11-07T07:59:23.127Z,0.70
2022-11-07T08:01:55.231Z,1.10
2022-11-07T08:04:23.263Z,0.90
2022-11-07T08:06:49.922Z,0.80
2022-11-07T08:09:16.551Z,0.60
2022-11-07T08:11:43.191Z,0.60
2022-11-07T08:14:11.706Z,0.80
2022-11-07T08:16:38.295Z,1.10
2022-11-07T08:19:04.848Z,0.70
2022-11-07T08:21:31.552Z,0.70
2022-11-07T08:23:58.097Z,1.20
2022-11-07T08:26:24.764Z,0.90
2022-11-07T08:28:54.074Z,0.70
2022-11-07T08:31:20.790Z,0.70
2022-11-07T08:33:47.380Z,0.50
2022-11-07T08:36:14.046Z,0.50
2022-11-07T08:38:40.601Z,0.53
2022-11-07T08:41:07.217Z,0.60
2022-11-07T08:43:33.801Z,1.00
2022-11-07T08:46:00.428Z,0.50
2022-11-07T08:48:26.980Z,0.50
2022-11-07T08:50:56.173Z,0.67
2022-11-07T08:53:23.753Z,0.50
2022-11-07T08:55:50.596Z,0.50
2022-11-07T08:58:17.713Z,0.73
2022-11-07T09:00:44.557Z,0.80
2022-11-07T09:05:58.701Z,0.93
2022-11-07T09:08:25.364Z,1.00
2022-11-07T09:10:51.952Z,0.50
2022-11-07T09:13:20.862Z,0.53
2022-11-07T09:15:50.986Z,0.77
2022-11-07T09:18:19.597Z,0.80
2022-11-07T09:20:46.361Z,1.07
2022-11-07T09:23:13.189Z,0.53
2022-11-07T09:25:40.004Z,0.50
2022-11-07T09:28:06.616Z,0.60
2022-11-07T09:30:33.292Z,0.32
2022-11-07T09:33:00.392Z,0.50
2022-11-07T09:35:27.356Z,0.23
2022-11-07T09:37:53.866Z,0.37
2022-11-07T09:40:26.765Z,0.30
2022-11-07T09:43:28.898Z,1.20
2022-11-07T09:46:07.725Z,0.60
2022-11-07T09:48:44.952Z,0.53
2022-11-07T09:51:22.207Z,0.80
2022-11-07T09:53:56.354Z,0.47
2022-11-07T09:56:23.061Z,0.60
2022-11-07T09:58:54.810Z,0.60
2022-11-07T10:01:22.169Z,0.40
2022-11-07T10:04:18.216Z,0.50
2022-11-07T10:06:49.411Z,1.07
2022-11-07T10:10:01.158Z,0.40
2022-11-07T10:12:52.265Z,0.70
2022-11-07T10:15:45.032Z,0.53
2022-11-07T10:18:33.161Z,0.40
2022-11-07T10:21:41.756Z,0.60
2022-11-07T10:24:16.880Z,0.67
2022-11-07T10:26:45.034Z,0.60
2022-11-07T10:29:21.571Z,0.57
2022-11-07T10:31:54.953Z,0.43
2022-11-07T10:34:31.663Z,0.70
2022-11-07T10:36:58.213Z,1.30
2022-11-07T10:39:24.740Z,0.67
2022-11-07T10:42:02.735Z,0.60
2022-11-07T10:44:30.095Z,0.50
2022-11-07T10:46:56.735Z,0.53
2022-11-07T10:49:26.654Z,0.57
2022-11-07T10:51:54.794Z,0.70
2022-11-07T10:54:22.238Z,0.50
2022-11-07T10:57:12.794Z,0.40
2022-11-07T10:59:41.505Z,0.50
2022-11-07T11:02:20.948Z,1.07
2022-11-07T11:04:51.406Z,0.50
2022-11-07T11:07:21.840Z,1.17
2022-11-07T11:09:56.873Z,0.40
2022-11-07T11:12:29.985Z,0.43
2022-11-07T11:15:15.880Z,0.87
2022-11-07T11:17:42.534Z,0.87
2022-11-07T11:20:29.800Z,0.37
2022-11-07T11:22:56.876Z,0.30
2022-11-07T11:25:24.207Z,0.60
2022-11-07T11:28:01.744Z,0.80
2022-11-07T11:30:30.964Z,0.73
2022-11-07T11:33:07.679Z,0.20
2022-11-07T11:35:42.251Z,0.50
2022-11-07T11:38:12.036Z,0.70
2022-11-07T11:40:41.123Z,0.50
2022-11-07T11:43:17.292Z,0.97
2022-11-07T11:45:58.266Z,0.57
2022-11-07T11:48:39.856Z,1.03
2022-11-07T11:51:21.600Z,0.50
2022-11-07T11:53:48.292Z,0.97
2022-11-07T11:56:27.119Z,0.30
2022-11-07T11:59:23.668Z,0.30
2022-11-07T12:02:05.373Z,0.70
2022-11-07T12:04:34.946Z,0.67
2022-11-07T12:07:27.726Z,0.50
2022-11-07T12:10:07.750Z,0.60
2022-11-07T12:12:56.293Z,0.43
2022-11-07T12:15:39.677Z,0.80
2022-11-07T12:18:28.010Z,0.77
2022-11-07T12:21:06.746Z,0.63
2022-11-07T12:23:56.880Z,0.63
2022-11-07T12:26:40.802Z,0.40
2022-11-07T12:29:24.058Z,0.50
2022-11-07T12:31:57.906Z,0.50
2022-11-07T12:34:51.675Z,1.00
2022-11-07T12:37:26.990Z,0.28
2022-11-07T12:40:08.959Z,1.60
2022-11-07T12:42:58.862Z,0.77
2022-11-07T12:45:55.409Z,0.38
2022-11-07T12:48:26.869Z,0.60
2022-11-07T12:51:27.651Z,0.75
2022-11-07T12:54:18.949Z,0.57
2022-11-07T12:56:48.490Z,0.95
2022-11-07T12:59:27.701Z,0.70
2022-11-07T13:02:09.374Z,0.50
2022-11-07T13:04:47.957Z,0.55
2022-11-07T13:07:38.771Z,0.30
2022-11-07T13:10:24.003Z,0.73
2022-11-07T13:13:12.372Z,0.60
2022-11-07T13:16:08.808Z,0.60
2022-11-07T13:18:28.021Z,0.45
2022-11-07T13:21:06.307Z,0.30
2022-11-07T13:23:33.454Z,0.40
2022-11-07T13:26:20.302Z,0.93
2022-11-07T13:29:01.133Z,0.45
2022-11-07T13:31:39.292Z,0.60
2022-11-07T13:34:10.348Z,0.67
2022-11-07T13:36:37.376Z,0.63
2022-11-07T13:39:07.168Z,0.57
2022-11-07T13:41:34.760Z,0.50
2022-11-07T13:44:08.100Z,0.57
2022-11-07T13:46:44.930Z,0.50
2022-11-07T13:49:32.315Z,0.47
2022-11-07T13:52:04.860Z,0.40
2022-11-07T13:54:40.910Z,0.70
2022-11-07T13:57:19.383Z,0.40
2022-11-07T14:00:06.023Z,0.40
2022-11-07T14:02:34.986Z,0.40
2022-11-07T14:05:16.165Z,0.90
2022-11-07T14:07:48.397Z,0.60
2022-11-07T14:10:43.128Z,0.30
2022-11-07T14:13:13.838Z,0.40
2022-11-07T14:15:47.815Z,0.30
2022-11-07T14:18:16.600Z,0.38
2022-11-07T14:20:52.663Z,0.40
2022-11-07T14:23:28.198Z,0.40
2022-11-07T14:26:04.454Z,0.43
2022-11-07T14:28:39.664Z,0.30
2022-11-07T14:31:15.463Z,0.40
2022-11-07T14:33:51.529Z,0.63
2022-11-07T14:36:18.991Z,0.40
2022-11-07T14:38:51.359Z,1.50
2022-11-07T14:41:18.839Z,0.40
2022-11-07T14:43:47.107Z,0.40
2022-11-07T14:46:21.690Z,0.93
2022-11-07T14:48:52.176Z,0.60
2022-11-07T14:51:23.262Z,0.23
2022-11-07T14:54:12.635Z,0.30
2022-11-07T14:56:44.312Z,0.90
2022-11-07T14:59:16.178Z,0.60
2022-11-07T15:02:04.502Z,0.57
2022-11-07T15:04:38.030Z,0.50
2022-11-07T15:07:28.087Z,0.43
2022-11-07T15:09:57.606Z,0.40
2022-11-07T15:12:26.914Z,0.83
2022-11-07T15:15:02.700Z,1.67
2022-11-07T15:17:29.770Z,0.60
2022-11-07T15:20:01.868Z,0.70
2022-11-07T15:22:38.522Z,0.50
2022-11-07T15:25:25.769Z,0.60
2022-11-07T15:27:53.143Z,0.63
2022-11-07T15:30:25.700Z,0.43
2022-11-07T15:32:52.359Z,0.80
2022-11-07T15:38:07.519Z,1.10
2022-11-07T15:40:34.167Z,0.40
2022-11-07T15:43:00.717Z,0.40
2022-11-07T15:45:27.297Z,0.57
2022-11-07T15:47:53.955Z,0.60
2022-11-07T15:50:24.820Z,0.90
2022-11-07T15:52:52.522Z,0.67
2022-11-07T15:55:22.047Z,0.53
2022-11-07T15:57:50.945Z,0.57
2022-11-07T16:00:20.759Z,0.70
2022-11-07T16:02:47.692Z,0.60
2022-11-07T16:05:15.331Z,0.30
2022-11-07T16:07:43.784Z,0.57
2022-11-07T16:10:25.171Z,0.60
2022-11-07T16:12:53.236Z,0.57
2022-11-07T16:15:23.220Z,0.43
2022-11-07T16:17:49.920Z,1.07
2022-11-07T16:20:19.077Z,0.60
2022-11-07T16:22:46.874Z,0.60
2022-11-07T16:25:22.117Z,0.57
2022-11-07T16:27:55.002Z,0.57
2022-11-07T16:30:22.638Z,1.20
2022-11-07T16:32:49.280Z,0.47
2022-11-07T16:35:15.920Z,0.70
2022-11-07T16:37:42.616Z,1.00
2022-11-07T16:40:14.387Z,0.53
2022-11-07T16:42:41.047Z,1.40
2022-11-07T16:45:08.261Z,1.13
2022-11-07T16:47:43.507Z,1.40
2022-11-07T16:50:13.795Z,0.53
2022-11-07T16:52:40.499Z,1.40
2022-11-07T16:55:07.663Z,0.77
2022-11-07T16:57:37.204Z,1.03
2022-11-07T17:00:04.698Z,0.80
2022-11-07T17:02:31.566Z,0.50
2022-11-07T17:04:58.142Z,0.57
2022-11-07T17:07:24.936Z,0.83
2022-11-07T17:09:51.989Z,0.60
2022-11-07T17:12:21.776Z,0.97
2022-11-07T17:14:48.806Z,0.60
2022-11-07T17:17:17.184Z,1.13
2022-11-07T17:19:44.033Z,0.50
2022-11-07T17:22:11.917Z,0.47
2022-11-07T17:24:39.163Z,0.60
2022-11-07T17:27:26.231Z,0.60
2022-11-07T17:29:53.782Z,0.50
2022-11-07T17:32:20.876Z,0.40
2022-11-07T17:34:59.179Z,0.50
2022-11-07T17:37:35.679Z,0.70
2022-11-07T17:40:02.728Z,0.63
2022-11-07T17:42:31.577Z,0.60
2022-11-07T17:45:01.733Z,1.10
2022-11-07T17:47:30.703Z,0.93
2022-11-07T17:49:58.290Z,0.57
2022-11-07T17:52:24.899Z,0.80
2022-11-07T17:54:51.376Z,0.80
2022-11-07T17:57:18.052Z,0.70
2022-11-07T17:59:46.024Z,0.50
2022-11-07T18:02:18.636Z,0.50
2022-11-07T18:04:46.186Z,0.70
2022-11-07T18:07:12.982Z,0.57
2022-11-07T18:09:43.213Z,1.00
2022-11-07T18:12:10.878Z,0.70
2022-11-07T18:14:37.578Z,0.50
2022-11-07T18:17:04.950Z,1.50
2022-11-07T18:19:31.694Z,0.90
2022-11-07T18:21:58.220Z,0.80
2022-11-07T18:24:24.968Z,0.40
2022-11-07T18:26:52.325Z,0.70
2022-11-07T18:29:19.514Z,0.73
2022-11-07T18:31:50.681Z,1.43
2022-11-07T18:34:17.617Z,0.80
2022-11-07T18:36:45.157Z,0.57
2022-11-07T18:39:14.813Z,1.20
2022-11-07T18:41:42.209Z,0.70
2022-11-07T18:44:10.678Z,0.60
2022-11-07T18:46:37.976Z,0.90
2022-11-07T18:49:05.854Z,0.83
2022-11-07T18:51:33.545Z,0.70
2022-11-07T18:54:02.255Z,0.70
2022-11-07T18:56:28.967Z,0.60
2022-11-07T18:58:56.067Z,0.97
2022-11-07T19:01:26.630Z,0.60
2022-11-07T19:03:57.889Z,0.80
2022-11-07T19:06:26.778Z,1.23
2022-11-07T19:08:53.522Z,0.70
2022-11-07T19:11:25.933Z,0.80
2022-11-07T19:13:53.631Z,0.60
2022-11-07T19:16:22.307Z,0.43
2022-11-07T19:18:50.079Z,0.53
2022-11-07T19:21:20.539Z,0.73
2022-11-07T19:23:48.701Z,0.50
2022-11-07T19:26:16.013Z,1.10
2022-11-07T19:28:42.598Z,0.63
2022-11-07T19:31:13.047Z,0.70
2022-11-07T19:33:41.633Z,0.73
2022-11-07T19:36:13.604Z,0.97
2022-11-07T19:38:40.165Z,0.83
2022-11-07T19:41:08.455Z,0.60
2022-11-07T19:43:35.607Z,0.53
2022-11-07T19:46:18.943Z,0.90
2022-11-07T19:48:45.869Z,0.80
2022-11-07T19:51:20.935Z,0.40
2022-11-07T19:53:56.240Z,0.40
2022-11-07T19:56:24.219Z,0.80
2022-11-07T19:58:51.244Z,1.13
2022-11-07T20:01:20.633Z,0.40
2022-11-07T20:03:49.101Z,1.00
2022-11-07T20:06:17.982Z,0.67
2022-11-07T20:08:46.428Z,0.77
2022-11-07T20:11:14.865Z,1.30
2022-11-07T20:13:42.128Z,1.20
2022-11-07T20:16:09.317Z,1.33
2022-11-07T20:18:37.441Z,0.70
2022-11-07T20:21:07.306Z,2.03
2022-11-07T20:23:34.036Z,0.83
2022-11-07T20:26:00.821Z,0.50
2022-11-07T20:28:27.398Z,1.57
2022-11-07T20:30:56.116Z,0.50
2022-11-07T20:33:24.609Z,0.50
2022-11-07T20:36:03.555Z,0.70
2022-11-07T20:38:30.338Z,0.60
2022-11-07T20:40:57.121Z,1.07
2022-11-07T20:43:24.233Z,1.77
2022-11-07T20:45:51.099Z,0.83
2022-11-07T20:48:18.168Z,0.70
2022-11-07T20:50:45.152Z,0.50
2022-11-07T20:53:12.177Z,1.30
2022-11-07T20:55:43.047Z,0.77
2022-11-07T20:58:11.171Z,0.50
2022-11-07T21:00:40.711Z,0.77
2022-11-07T21:03:07.671Z,0.93
2022-11-07T21:05:37.074Z,1.03
2022-11-07T21:08:03.860Z,1.10
2022-11-07T21:10:30.417Z,0.57
2022-11-07T21:12:56.996Z,0.60
2022-11-07T21:15:23.566Z,0.80
2022-11-07T21:17:50.170Z,0.50
2022-11-07T21:20:16.693Z,0.47
2022-11-07T21:22:43.281Z,0.90
2022-11-07T21:25:10.094Z,0.70
2022-11-07T21:27:37.080Z,0.70
2022-11-07T21:30:06.205Z,0.80
2022-11-07T21:32:34.061Z,0.67
2022-11-07T21:35:00.662Z,0.97
2022-11-07T21:37:27.272Z,0.70
2022-11-07T21:39:53.909Z,0.60
2022-11-07T21:42:20.568Z,1.57
2022-11-07T21:44:47.192Z,0.60
2022-11-07T21:47:13.769Z,0.70
2022-11-07T21:49:40.349Z,0.50
2022-11-07T21:52:06.909Z,0.70
2022-11-07T21:54:33.452Z,0.60
2022-11-07T21:57:00.435Z,0.83
2022-11-07T21:59:27.108Z,0.97
2022-11-07T22:01:55.313Z,0.67
2022-11-07T22:04:21.937Z,0.83
2022-11-07T22:06:48.524Z,0.97
2022-11-07T22:09:17.539Z,0.50
2022-11-07T22:11:44.567Z,0.80
2022-11-07T22:14:16.662Z,0.50
2022-11-07T22:16:43.314Z,0.67
2022-11-07T22:19:12.769Z,0.53
2022-11-07T22:21:40.180Z,0.63
2022-11-07T22:24:07.205Z,0.80
2022-11-07T22:26:33.830Z,0.50
2022-11-07T22:29:00.351Z,0.50
2022-11-07T22:31:30.458Z,0.60
2022-11-07T22:33:59.504Z,0.80
2022-11-07T22:36:26.285Z,0.47
2022-11-07T22:38:52.872Z,0.77
2022-11-07T22:41:24.305Z,0.53
2022-11-07T22:43:51.449Z,0.90
2022-11-07T22:46:20.764Z,0.60
2022-11-07T22:48:48.789Z,0.50
2022-11-07T22:51:21.008Z,0.37
2022-11-07T22:53:47.951Z,0.50
2022-11-07T22:56:16.014Z,0.80
2022-11-07T22:58:43.395Z,0.77
2022-11-07T23:01:16.778Z,0.60
2022-11-07T23:03:43.603Z,0.77
2022-11-07T23:06:10.454Z,0.87
2022-11-07T23:08:37.498Z,0.63
2022-11-07T23:11:44.020Z,0.70
2022-11-07T23:14:00.669Z,0.43
2022-11-07T23:16:32.766Z,0.60
2022-11-07T23:19:01.498Z,1.10
2022-11-07T23:21:28.132Z,0.50
2022-11-07T23:23:56.428Z,0.70
2022-11-07T23:26:23.884Z,0.97
2022-11-07T23:28:50.531Z,1.93
2022-11-07T23:31:18.739Z,0.60
2022-11-07T23:33:45.351Z,0.90
2022-11-07T23:36:16.584Z,0.60
2022-11-07T23:38:44.371Z,1.27
2022-11-07T23:41:13.651Z,0.60
2022-11-07T23:43:40.558Z,0.73
2022-11-07T23:46:25.987Z,0.50
2022-11-07T23:49:14.584Z,0.80
2022-11-07T23:51:42.131Z,1.03
2022-11-07T23:54:27.324Z,0.70
2022-11-07T23:56:54.138Z,0.70
2022-11-07T23:59:39.092Z,1.00
